EmailTwitter


Observations de surface / France / LFBO (07630)

Régions: Québec | Canada | États-Unis | Europe | France | UK | Ailleurs
Station
Affichage
Infos & localisation pour LFBO (07630) | Aide pour décoder les METARs

Observations prises le 2018-12-12 à 11H30 UTC à TOULOUSE/BLAGNAC, FR (LFBO)

Etat du ciel: couvert.

Température: 9.0 Celsius

Point de rosée: 8.0 Celsius

Humidité relative: 93%

Vents: Nord-ouest à 11 km/h ou 6 noeuds.

Pression au niveau moyen de la mer: 102.00 kilopascals.

Visibilité horizontale: 3.73 milles terrestres ou 5.97 kilomètres.

Hauteur du plafond: 183 mètres ( 600 pieds ).

Observation METAR:

LFBO 121130Z AUTO 30006KT 6000 OVC006 09/08 Q1020 TEMPO 4000 BR BECMG SCT005

BKN010=